createdAt,value
2022-12-31T00:01:08.630Z,29.52
2022-12-31T00:03:13.401Z,29.51
2022-12-31T00:05:17.859Z,29.53
2022-12-31T00:07:22.190Z,29.51
2022-12-31T00:09:26.631Z,29.58
2022-12-31T00:11:31.039Z,29.36
2022-12-31T00:13:35.436Z,29.23
2022-12-31T00:15:39.809Z,28.87
2022-12-31T00:17:44.169Z,29.1
2022-12-31T00:19:48.493Z,29.35
2022-12-31T00:21:52.877Z,29.46
2022-12-31T00:23:57.251Z,29.95
2022-12-31T00:26:01.716Z,29.55
2022-12-31T00:28:06.084Z,29.5
2022-12-31T00:30:10.421Z,29.46
2022-12-31T00:32:14.800Z,29.57
2022-12-31T00:34:19.179Z,29.36
2022-12-31T00:36:23.553Z,29.39
2022-12-31T00:38:28.004Z,29.33
2022-12-31T00:40:32.296Z,29.47
2022-12-31T00:42:36.684Z,29.52
2022-12-31T00:44:41.060Z,29.48
2022-12-31T00:48:47.124Z,29.52
2022-12-31T00:50:51.486Z,29.49
2022-12-31T00:52:55.916Z,29.54
2022-12-31T00:55:00.234Z,29.48
2022-12-31T00:57:04.583Z,29.5
2022-12-31T00:59:09.014Z,29.44
2022-12-31T01:01:13.868Z,29.51
2022-12-31T01:03:18.499Z,29.7
2022-12-31T01:05:22.856Z,29.65
2022-12-31T01:07:27.246Z,29.69
2022-12-31T01:09:31.712Z,29.6
2022-12-31T01:11:36.130Z,29.59
2022-12-31T01:13:40.587Z,29.66
2022-12-31T01:15:45.090Z,29.62
2022-12-31T01:17:49.429Z,29.5
2022-12-31T01:19:53.775Z,29.59
2022-12-31T01:21:58.203Z,29.62
2022-12-31T01:24:02.591Z,29.59
2022-12-31T01:26:06.945Z,29.64
2022-12-31T01:28:11.283Z,29.65
2022-12-31T01:30:15.622Z,30.11
2022-12-31T01:32:19.966Z,29.84
2022-12-31T01:34:24.395Z,29.8
2022-12-31T01:36:28.861Z,29.89
2022-12-31T01:38:33.225Z,29.86
2022-12-31T01:40:37.565Z,29.89
2022-12-31T01:42:41.935Z,30.01
2022-12-31T01:44:46.285Z,29.95
2022-12-31T01:46:50.680Z,30.06
2022-12-31T01:48:55.014Z,29.98
2022-12-31T01:50:59.342Z,30.06
2022-12-31T01:53:03.742Z,30.09
2022-12-31T01:55:08.059Z,30.22
2022-12-31T01:57:12.416Z,30.17
2022-12-31T01:59:16.810Z,30.34
2022-12-31T02:01:21.800Z,30.42
2022-12-31T02:03:26.509Z,30.52
2022-12-31T02:05:30.958Z,30.59
2022-12-31T02:07:35.345Z,30.72
2022-12-31T02:09:39.690Z,30.88
2022-12-31T02:11:44.060Z,30.94
2022-12-31T02:13:50.588Z,31.02
2022-12-31T02:15:57.082Z,31.26
2022-12-31T02:18:01.469Z,31.21
2022-12-31T02:20:05.832Z,31.31
2022-12-31T02:22:10.701Z,31.27
2022-12-31T02:24:15.049Z,31.32
2022-12-31T02:26:19.391Z,31.36
2022-12-31T02:28:23.716Z,31.28
2022-12-31T02:30:28.165Z,31.31
2022-12-31T02:32:32.542Z,31.31
2022-12-31T02:34:36.875Z,31.46
2022-12-31T02:36:41.220Z,31.4
2022-12-31T02:38:45.537Z,31.5
2022-12-31T02:40:49.906Z,31.55
2022-12-31T02:42:57.676Z,31.63
2022-12-31T02:45:02.115Z,31.77
2022-12-31T02:47:06.457Z,31.67
2022-12-31T02:49:10.747Z,31.7
2022-12-31T02:51:15.136Z,31.8
2022-12-31T02:53:19.485Z,31.76
2022-12-31T02:55:23.792Z,31.94
2022-12-31T02:57:28.158Z,32
2022-12-31T02:59:32.464Z,31.98
2022-12-31T03:01:37.393Z,31.89
2022-12-31T03:03:42.219Z,31.93
2022-12-31T03:05:46.573Z,32.07
2022-12-31T03:07:50.865Z,32.01
2022-12-31T03:09:55.293Z,32.21
2022-12-31T03:11:59.612Z,32.38
2022-12-31T03:14:03.951Z,32.5
2022-12-31T03:16:08.439Z,32.76
2022-12-31T03:18:12.773Z,32.5
2022-12-31T03:20:17.092Z,32.46
2022-12-31T03:22:21.448Z,32.25
2022-12-31T03:24:25.872Z,32.15
2022-12-31T03:26:30.204Z,32.26
2022-12-31T03:28:34.608Z,32.32
2022-12-31T03:30:38.915Z,32.29
2022-12-31T03:32:43.277Z,32.24
2022-12-31T03:34:47.595Z,32.2
2022-12-31T03:36:51.955Z,32.29
2022-12-31T03:38:56.284Z,32.44
2022-12-31T03:41:00.602Z,32.54
2022-12-31T03:43:04.942Z,32.54
2022-12-31T03:45:09.275Z,32.4
2022-12-31T03:47:13.640Z,32.46
2022-12-31T03:49:17.932Z,32.37
2022-12-31T03:51:22.256Z,32.36
2022-12-31T03:53:26.743Z,32.18
2022-12-31T03:55:31.183Z,32.37
2022-12-31T03:57:35.539Z,32.27
2022-12-31T03:59:39.975Z,32.21
2022-12-31T04:01:44.805Z,32.24
2022-12-31T04:03:49.123Z,32.11
2022-12-31T04:05:53.545Z,32.17
2022-12-31T04:07:57.873Z,32.17
2022-12-31T04:10:02.235Z,32.09
2022-12-31T04:12:06.549Z,32.09
2022-12-31T04:14:10.902Z,32.13
2022-12-31T04:16:15.407Z,32.14
2022-12-31T04:18:19.803Z,32.13
2022-12-31T04:20:24.213Z,32.16
2022-12-31T04:22:28.633Z,32.16
2022-12-31T04:24:33.027Z,32.43
2022-12-31T04:26:37.364Z,32.25
2022-12-31T04:29:27.596Z,32.37
2022-12-31T04:31:32.097Z,32.3
2022-12-31T04:33:36.598Z,32.28
2022-12-31T04:35:40.943Z,32.3
2022-12-31T04:37:45.254Z,32.55
2022-12-31T04:39:49.576Z,32.56
2022-12-31T04:41:53.934Z,32.57
2022-12-31T04:43:58.237Z,32.36
2022-12-31T04:46:02.799Z,32.42
2022-12-31T04:48:07.157Z,32.6
2022-12-31T04:50:11.482Z,32.54
2022-12-31T04:52:15.809Z,32.73
2022-12-31T04:54:20.165Z,32.75
2022-12-31T04:56:24.511Z,32.82
2022-12-31T04:58:28.869Z,32.78
2022-12-31T05:00:33.176Z,32.93
2022-12-31T05:02:38.415Z,33.04
2022-12-31T05:04:42.916Z,33.12
2022-12-31T05:06:47.271Z,33.34
2022-12-31T05:08:51.693Z,32.97
2022-12-31T05:10:56.000Z,33.07
2022-12-31T05:13:00.368Z,33.1
2022-12-31T05:15:04.731Z,32.98
2022-12-31T05:17:09.047Z,33.08
2022-12-31T05:19:13.361Z,33.36
2022-12-31T05:21:17.719Z,33.45
2022-12-31T05:23:22.094Z,33.53
2022-12-31T05:25:26.467Z,33.46
2022-12-31T05:27:30.863Z,33.69
2022-12-31T05:29:35.216Z,33.75
2022-12-31T05:31:39.563Z,33.72
2022-12-31T05:33:43.909Z,33.63
2022-12-31T05:35:48.242Z,33.49
2022-12-31T05:37:52.606Z,33.66
2022-12-31T05:39:56.961Z,33.62
2022-12-31T05:42:01.329Z,33.79
2022-12-31T05:44:05.658Z,33.95
2022-12-31T05:46:10.292Z,33.71
2022-12-31T05:48:14.690Z,34.01
2022-12-31T05:50:19.047Z,33.96
2022-12-31T05:52:23.381Z,34.11
2022-12-31T05:54:27.751Z,33.93
2022-12-31T05:56:32.151Z,34.07
2022-12-31T05:58:36.496Z,33.96
2022-12-31T06:00:40.813Z,34.01
2022-12-31T06:02:45.475Z,34.19
2022-12-31T06:04:49.873Z,34.3
2022-12-31T06:06:54.243Z,34.58
2022-12-31T06:08:58.573Z,34.35
2022-12-31T06:11:02.878Z,34.54
2022-12-31T06:13:07.265Z,34.5
2022-12-31T06:15:11.636Z,34.65
2022-12-31T06:17:16.042Z,34.92
2022-12-31T06:19:20.533Z,34.86
2022-12-31T06:21:24.919Z,34.94
2022-12-31T06:23:29.243Z,34.77
2022-12-31T06:25:33.599Z,34.83
2022-12-31T06:27:37.999Z,35.01
2022-12-31T06:29:42.360Z,35.04
2022-12-31T06:31:46.721Z,34.95
2022-12-31T06:33:51.087Z,35.14
2022-12-31T06:35:55.441Z,35.15
2022-12-31T06:37:59.794Z,35.08
2022-12-31T06:40:04.293Z,35.2
2022-12-31T06:42:08.591Z,35.26
2022-12-31T06:44:12.963Z,35.22
2022-12-31T06:46:17.561Z,35.31
2022-12-31T06:48:21.907Z,35.24
2022-12-31T06:50:26.369Z,35.14
2022-12-31T06:52:30.965Z,35.33
2022-12-31T06:54:35.294Z,35.14
2022-12-31T06:56:39.602Z,35.16
2022-12-31T06:58:43.961Z,35.31
2022-12-31T07:00:48.311Z,35.21
2022-12-31T07:02:52.919Z,35.23
2022-12-31T07:04:57.405Z,35.31
2022-12-31T07:07:01.771Z,35.41
2022-12-31T07:09:06.267Z,35.41
2022-12-31T07:11:10.606Z,35.45
2022-12-31T07:13:14.999Z,35.47
2022-12-31T07:15:19.332Z,35.64
2022-12-31T07:17:23.687Z,35.74
2022-12-31T07:19:28.012Z,35.68
2022-12-31T07:21:32.339Z,35.82
2022-12-31T07:23:36.709Z,35.8
2022-12-31T07:25:41.062Z,35.9
2022-12-31T07:27:45.495Z,35.94
2022-12-31T07:29:49.844Z,35.89
2022-12-31T07:31:54.325Z,36.16
2022-12-31T07:33:58.671Z,35.96
2022-12-31T07:36:02.995Z,36.05
2022-12-31T07:38:07.359Z,36.22
2022-12-31T07:40:11.774Z,36.3
2022-12-31T07:42:16.146Z,36.16
2022-12-31T07:44:20.523Z,36.36
2022-12-31T07:46:25.054Z,36.31
2022-12-31T07:48:29.461Z,36.37
2022-12-31T07:50:33.832Z,36.31
2022-12-31T07:52:38.118Z,36.34
2022-12-31T07:54:42.457Z,36.42
2022-12-31T07:56:46.851Z,36.52
2022-12-31T07:58:51.340Z,36.43
2022-12-31T08:00:55.938Z,36.45
2022-12-31T08:03:00.616Z,36.47
2022-12-31T08:05:05.056Z,36.59
2022-12-31T08:07:09.516Z,36.72
2022-12-31T08:09:13.925Z,36.72
2022-12-31T08:11:18.343Z,36.77
2022-12-31T08:13:22.745Z,36.83
2022-12-31T08:15:32.343Z,36.84
2022-12-31T08:17:36.775Z,36.74
2022-12-31T08:19:41.184Z,36.89
2022-12-31T08:21:45.697Z,36.9
2022-12-31T08:23:50.122Z,37.02
2022-12-31T08:25:54.513Z,36.87
2022-12-31T08:27:58.902Z,37.01
2022-12-31T08:30:03.335Z,36.93
2022-12-31T08:32:07.800Z,36.89
2022-12-31T08:34:12.195Z,36.92
2022-12-31T08:36:16.625Z,36.99
2022-12-31T08:38:21.015Z,37.04
2022-12-31T08:40:25.849Z,37
2022-12-31T08:42:30.283Z,37.13
2022-12-31T08:44:34.812Z,36.92
2022-12-31T08:46:39.224Z,36.92
2022-12-31T08:48:43.689Z,36.94
2022-12-31T08:50:48.158Z,36.93
2022-12-31T08:52:52.519Z,36.98
2022-12-31T08:54:56.939Z,36.92
2022-12-31T08:57:01.291Z,37.25
2022-12-31T08:59:05.771Z,37.2
2022-12-31T09:01:10.702Z,37.49
2022-12-31T09:03:15.294Z,37.12
2022-12-31T09:05:19.682Z,37.34
2022-12-31T09:07:24.114Z,37.29
2022-12-31T09:09:28.443Z,37.52
2022-12-31T09:11:32.790Z,37.75
2022-12-31T09:13:37.132Z,37.59
2022-12-31T09:15:41.502Z,37.76
2022-12-31T09:17:45.973Z,37.69
2022-12-31T09:19:50.342Z,38.05
2022-12-31T09:21:54.780Z,37.99
2022-12-31T09:24:01.883Z,37.85
2022-12-31T09:26:10.228Z,38.12
2022-12-31T09:28:14.605Z,38.12
2022-12-31T09:30:18.996Z,38.09
2022-12-31T09:32:23.400Z,38.14
2022-12-31T09:34:27.931Z,38.09
2022-12-31T09:36:32.310Z,38.08
2022-12-31T09:38:36.827Z,38.21
2022-12-31T09:40:41.244Z,38.57
2022-12-31T09:42:45.674Z,38.56
2022-12-31T09:44:50.034Z,38.71
2022-12-31T09:46:54.446Z,38.65
2022-12-31T09:48:58.848Z,38.35
2022-12-31T09:51:03.181Z,38.6
2022-12-31T09:53:07.562Z,38.64
2022-12-31T09:55:11.900Z,38.81
2022-12-31T09:57:16.319Z,38.74
2022-12-31T09:59:20.697Z,38.83
2022-12-31T10:01:25.621Z,38.99
2022-12-31T10:03:30.211Z,39.07
2022-12-31T10:05:34.657Z,39.07
2022-12-31T10:07:39.039Z,39.28
2022-12-31T10:09:43.425Z,39.14
2022-12-31T10:11:47.794Z,39.31
2022-12-31T10:13:52.358Z,39.11
2022-12-31T10:15:56.716Z,39.18
2022-12-31T10:18:01.196Z,38.85
2022-12-31T10:20:05.532Z,38.79
2022-12-31T10:22:09.913Z,38.96
2022-12-31T10:24:14.373Z,38.96
2022-12-31T10:26:18.703Z,38.82
2022-12-31T10:28:23.096Z,38.82
2022-12-31T10:30:27.503Z,38.79
2022-12-31T10:32:33.688Z,38.68
2022-12-31T10:34:38.086Z,38.5
2022-12-31T10:36:42.530Z,38.48
2022-12-31T10:38:46.882Z,37.99
2022-12-31T10:40:51.280Z,38.38
2022-12-31T10:42:55.657Z,38.7
2022-12-31T10:45:00.062Z,39.74
2022-12-31T10:47:04.391Z,39.93
2022-12-31T10:49:08.775Z,39.92
2022-12-31T10:51:13.179Z,40.13
2022-12-31T10:53:17.765Z,40.06
2022-12-31T10:55:22.082Z,39.8
2022-12-31T10:57:26.441Z,39.75
2022-12-31T10:59:30.786Z,39.84
2022-12-31T11:01:35.750Z,39.89
2022-12-31T11:03:40.528Z,39.82
2022-12-31T11:05:45.251Z,40.27
2022-12-31T11:07:49.592Z,39.82
2022-12-31T11:09:53.906Z,40.18
2022-12-31T11:11:58.303Z,40.32
2022-12-31T11:14:02.757Z,39.69
2022-12-31T11:16:07.255Z,39.76
2022-12-31T11:18:11.631Z,39.55
2022-12-31T11:20:16.109Z,39.26
2022-12-31T11:22:20.451Z,39.77
2022-12-31T11:24:24.837Z,40.3
2022-12-31T11:26:29.228Z,40.09
2022-12-31T11:28:33.620Z,40.12
2022-12-31T11:30:38.060Z,40.23
2022-12-31T11:32:42.519Z,40.2
2022-12-31T11:34:46.863Z,40.31
2022-12-31T11:36:51.198Z,40.48
2022-12-31T11:38:55.555Z,40.47
2022-12-31T11:40:59.868Z,40.29
2022-12-31T11:43:04.250Z,39.74
2022-12-31T11:45:08.572Z,40.06
2022-12-31T11:47:12.905Z,40.06
2022-12-31T11:49:17.370Z,40.2
2022-12-31T11:51:21.772Z,40.29
2022-12-31T11:53:26.126Z,40.35
2022-12-31T11:55:30.521Z,40.23
2022-12-31T11:57:34.945Z,40.1
2022-12-31T11:59:39.297Z,40.12
2022-12-31T12:01:43.924Z,39.86
2022-12-31T12:03:48.458Z,39.96
2022-12-31T12:05:52.858Z,39.85
2022-12-31T12:07:57.180Z,39.65
2022-12-31T12:10:01.647Z,39.59
2022-12-31T12:12:06.075Z,39.38
2022-12-31T12:14:10.439Z,39.36
2022-12-31T12:16:14.896Z,39.29
2022-12-31T12:18:19.219Z,39.21
2022-12-31T12:20:23.528Z,39.13
2022-12-31T12:22:27.821Z,39.04
2022-12-31T12:24:32.253Z,38.89
2022-12-31T12:26:36.606Z,38.81
2022-12-31T12:28:46.067Z,38.76
2022-12-31T12:30:50.404Z,38.7
2022-12-31T12:32:54.778Z,38.68
2022-12-31T12:34:59.148Z,38.61
2022-12-31T12:37:03.608Z,38.56
2022-12-31T12:39:08.034Z,38.59
2022-12-31T12:41:12.400Z,38.54
2022-12-31T12:43:16.787Z,38.49
2022-12-31T12:45:21.180Z,38.43
2022-12-31T12:47:25.663Z,38.46
2022-12-31T12:49:30.122Z,38.45
2022-12-31T12:51:34.466Z,38.41
2022-12-31T12:53:38.795Z,38.36
2022-12-31T12:55:43.140Z,38.37
2022-12-31T12:57:47.626Z,38.21
2022-12-31T12:59:52.046Z,38.27
2022-12-31T13:01:57.007Z,38.12
2022-12-31T13:04:36.407Z,37.92
2022-12-31T13:06:40.772Z,37.96
2022-12-31T13:08:45.157Z,38.04
2022-12-31T13:10:49.525Z,38.07
2022-12-31T13:13:25.975Z,37.98
2022-12-31T13:15:30.456Z,38.01
2022-12-31T13:17:34.821Z,37.99
2022-12-31T13:19:39.185Z,37.98
2022-12-31T13:21:43.597Z,37.91
2022-12-31T13:23:47.943Z,37.99
2022-12-31T13:25:52.333Z,38.01
2022-12-31T13:27:56.652Z,37.99
2022-12-31T13:30:00.951Z,37.98
2022-12-31T13:32:05.677Z,37.93
2022-12-31T13:34:10.159Z,37.85
2022-12-31T13:36:14.515Z,37.74
2022-12-31T13:38:18.978Z,37.79
2022-12-31T13:40:23.327Z,37.82
2022-12-31T13:42:27.718Z,37.81
2022-12-31T13:44:32.086Z,37.89
2022-12-31T13:46:36.414Z,37.88
2022-12-31T13:48:40.806Z,37.93
2022-12-31T13:50:45.153Z,38.24
2022-12-31T13:52:49.570Z,38.46
2022-12-31T13:54:53.973Z,38.98
2022-12-31T13:56:58.473Z,38.91
2022-12-31T13:59:02.869Z,38.97
2022-12-31T14:01:07.634Z,39.1
2022-12-31T14:03:12.357Z,39.13
2022-12-31T14:05:16.715Z,39.83
2022-12-31T14:07:21.045Z,39.54
2022-12-31T14:09:25.585Z,39.66
2022-12-31T14:11:29.969Z,40.11
2022-12-31T14:13:36.829Z,40.17
2022-12-31T14:15:41.228Z,40.45
2022-12-31T14:17:45.587Z,40.87
2022-12-31T14:19:49.951Z,41.08
2022-12-31T14:21:54.320Z,41.66
2022-12-31T14:23:58.772Z,41.68
2022-12-31T14:26:03.276Z,41.57
2022-12-31T14:28:07.679Z,41.99
2022-12-31T14:30:12.093Z,42.17
2022-12-31T14:32:16.495Z,42.16
2022-12-31T14:34:20.934Z,42.23
2022-12-31T14:36:25.369Z,41.83
2022-12-31T14:38:29.773Z,40.92
2022-12-31T14:40:34.179Z,41.02
2022-12-31T14:42:38.709Z,41.3
2022-12-31T14:44:43.133Z,41.13
2022-12-31T14:46:47.517Z,40.97
2022-12-31T14:48:51.997Z,41.52
2022-12-31T14:50:56.419Z,41.43
2022-12-31T14:53:00.899Z,41.3
2022-12-31T14:55:05.354Z,41.36
2022-12-31T14:57:09.751Z,41.25
2022-12-31T14:59:14.117Z,41.28
2022-12-31T15:01:18.983Z,41.11
2022-12-31T15:03:23.834Z,41.45
2022-12-31T15:05:28.312Z,41.05
2022-12-31T15:07:32.746Z,41.26
2022-12-31T15:09:37.110Z,41.19
2022-12-31T15:11:41.551Z,41.22
2022-12-31T15:13:45.934Z,41.13
2022-12-31T15:15:50.303Z,41.24
2022-12-31T15:17:54.749Z,41.3
2022-12-31T15:19:59.153Z,41.32
2022-12-31T15:22:03.587Z,41.48
2022-12-31T15:24:07.953Z,41.67
2022-12-31T15:26:12.340Z,41.64
2022-12-31T15:28:16.670Z,41.58
2022-12-31T15:30:20.997Z,41.56
2022-12-31T15:32:25.459Z,41.66
2022-12-31T15:34:29.946Z,41.94
2022-12-31T15:36:34.346Z,41.76
2022-12-31T15:38:38.819Z,41.88
2022-12-31T15:40:43.274Z,41.53
2022-12-31T15:42:51.855Z,41.66
2022-12-31T15:44:56.376Z,41.62
2022-12-31T15:47:00.792Z,41.53
2022-12-31T15:49:16.369Z,41
2022-12-31T15:51:20.801Z,40.89
2022-12-31T15:53:25.243Z,41.06
2022-12-31T15:55:29.643Z,41.43
2022-12-31T15:57:34.225Z,41.41
2022-12-31T15:59:38.699Z,41.36
2022-12-31T16:01:43.626Z,41.34
2022-12-31T16:03:48.121Z,41.33
2022-12-31T16:05:52.600Z,41.5
2022-12-31T16:07:56.992Z,41.4
2022-12-31T16:10:01.587Z,41.61
2022-12-31T16:12:06.010Z,41.81
2022-12-31T16:14:10.481Z,42.07
2022-12-31T16:16:15.066Z,42.06
2022-12-31T16:18:25.024Z,42.42
2022-12-31T16:20:29.441Z,42.71
2022-12-31T16:22:33.895Z,42.94
2022-12-31T16:25:31.840Z,42.98
2022-12-31T16:27:36.422Z,43.13
2022-12-31T16:29:40.822Z,43.15
2022-12-31T16:31:45.223Z,43.62
2022-12-31T16:33:49.676Z,43.12
2022-12-31T16:35:54.077Z,42.22
2022-12-31T16:37:58.502Z,41.79
2022-12-31T16:40:02.917Z,41.92
2022-12-31T16:42:07.327Z,41.81
2022-12-31T16:44:11.848Z,42.64
2022-12-31T16:46:16.552Z,42.85
2022-12-31T16:48:21.048Z,43.52
2022-12-31T16:50:25.458Z,43.93
2022-12-31T16:52:30.008Z,44.25
2022-12-31T16:54:34.493Z,44.17
2022-12-31T16:56:39.303Z,43.83
2022-12-31T16:58:43.937Z,43.57
2022-12-31T17:00:48.416Z,45.06
2022-12-31T17:02:53.284Z,44.58
2022-12-31T17:04:58.624Z,44.18
2022-12-31T17:07:03.068Z,43.44
2022-12-31T17:09:07.606Z,43.56
2022-12-31T17:11:12.019Z,41.96
2022-12-31T17:13:31.628Z,44.03
2022-12-31T17:15:36.060Z,43.75
2022-12-31T17:17:40.465Z,43.02
2022-12-31T17:19:44.849Z,43.45
2022-12-31T17:21:49.472Z,43.48
2022-12-31T17:23:53.989Z,43.33
2022-12-31T17:25:58.419Z,42.97
2022-12-31T17:28:02.868Z,42.81
2022-12-31T17:30:07.238Z,42.25
2022-12-31T17:32:11.758Z,42.92
2022-12-31T17:34:16.287Z,43.61
2022-12-31T17:36:20.712Z,44.09
2022-12-31T17:38:25.139Z,42.22
2022-12-31T17:40:53.647Z,41.71
2022-12-31T17:42:58.258Z,41.78
2022-12-31T17:45:02.773Z,40.63
2022-12-31T17:47:07.189Z,41.61
2022-12-31T17:49:11.609Z,41.31
2022-12-31T17:51:16.108Z,40.81
2022-12-31T17:53:28.843Z,41.04
2022-12-31T17:55:33.410Z,40.74
2022-12-31T17:57:37.824Z,40.63
2022-12-31T17:59:42.260Z,40.68
2022-12-31T18:01:47.528Z,40.87
2022-12-31T18:03:52.254Z,41.48
2022-12-31T18:05:56.652Z,41.33
2022-12-31T18:08:01.096Z,41.47
2022-12-31T18:10:05.595Z,40.89
2022-12-31T18:12:10.032Z,40.62
2022-12-31T18:14:14.490Z,42.25
2022-12-31T18:16:19.289Z,42.17
2022-12-31T18:18:27.554Z,41.54
2022-12-31T18:20:31.948Z,41.65
2022-12-31T18:22:36.470Z,41.79
2022-12-31T18:24:40.898Z,42.04
2022-12-31T18:26:45.289Z,41.98
2022-12-31T18:28:49.709Z,42.14
2022-12-31T18:30:54.425Z,41.76
2022-12-31T18:32:58.858Z,41.92
2022-12-31T18:35:03.299Z,41.31
2022-12-31T18:37:07.703Z,40.75
2022-12-31T18:39:12.397Z,40.45
2022-12-31T18:41:16.791Z,41.44
2022-12-31T18:43:21.355Z,41.64
2022-12-31T18:45:26.041Z,41.39
2022-12-31T18:47:38.969Z,41.81
2022-12-31T18:49:43.446Z,41.55
2022-12-31T18:51:47.852Z,40.86
2022-12-31T18:53:52.327Z,41.45
2022-12-31T18:55:56.870Z,40.46
2022-12-31T18:58:01.250Z,40.38
2022-12-31T19:00:05.731Z,39.61
2022-12-31T19:02:10.472Z,40.17
2022-12-31T19:04:15.124Z,40.26
2022-12-31T19:06:19.548Z,38.94
2022-12-31T19:08:24.064Z,38.84
2022-12-31T19:10:28.525Z,39.27
2022-12-31T19:12:33.074Z,39.37
2022-12-31T19:14:37.580Z,39.36
2022-12-31T19:16:42.220Z,39.55
2022-12-31T19:18:46.630Z,39.23
2022-12-31T19:20:50.990Z,39.58
2022-12-31T19:22:55.440Z,39.42
2022-12-31T19:24:59.836Z,39.49
2022-12-31T19:27:04.278Z,39.24
2022-12-31T19:29:08.659Z,39.13
2022-12-31T19:31:13.199Z,39.8
2022-12-31T19:33:17.695Z,40.06
2022-12-31T19:35:22.127Z,40.15
2022-12-31T19:37:26.506Z,40.54
2022-12-31T19:39:30.958Z,40.65
2022-12-31T19:41:35.469Z,40.77
2022-12-31T19:43:39.894Z,40.99
2022-12-31T19:45:44.491Z,41.35
2022-12-31T19:47:48.939Z,42.25
2022-12-31T19:49:53.376Z,42.38
2022-12-31T19:51:57.931Z,42.23
2022-12-31T19:54:02.312Z,42.93
2022-12-31T19:56:06.735Z,43.35
2022-12-31T19:58:11.207Z,43.53
2022-12-31T20:00:15.561Z,44.16
2022-12-31T20:02:20.676Z,44.18
2022-12-31T20:04:25.122Z,44.86
2022-12-31T20:06:29.618Z,44.98
2022-12-31T20:08:34.138Z,44.85
2022-12-31T20:10:38.543Z,44.58
2022-12-31T20:12:46.882Z,44.61
2022-12-31T20:14:51.300Z,44.83
2022-12-31T20:16:55.840Z,44.19
2022-12-31T20:19:00.339Z,44.23
2022-12-31T20:21:04.837Z,44.13
2022-12-31T20:23:09.250Z,43.83
2022-12-31T20:25:13.638Z,43.07
2022-12-31T20:27:20.710Z,43.17
2022-12-31T20:29:25.107Z,42.89
2022-12-31T20:31:29.500Z,43.04
2022-12-31T20:33:33.925Z,42.96
2022-12-31T20:35:38.345Z,42.95
2022-12-31T20:37:42.757Z,42.84
2022-12-31T20:39:47.173Z,42.91
2022-12-31T20:41:51.731Z,42.82
2022-12-31T20:43:56.168Z,42.61
2022-12-31T20:46:00.674Z,42.82
2022-12-31T20:48:05.097Z,42.65
2022-12-31T20:50:14.454Z,42.66
2022-12-31T20:52:18.795Z,42.48
2022-12-31T20:54:23.180Z,42.27
2022-12-31T20:56:27.697Z,42.17
2022-12-31T20:58:32.100Z,42.06
2022-12-31T21:00:36.618Z,42.01
2022-12-31T21:03:00.553Z,41.92
2022-12-31T21:05:12.141Z,41.92
2022-12-31T21:07:16.777Z,41.84
2022-12-31T21:09:21.166Z,41.77
2022-12-31T21:11:25.584Z,41.96
2022-12-31T21:13:29.974Z,42.14
2022-12-31T21:15:34.556Z,42.16
2022-12-31T21:17:38.982Z,42.08
2022-12-31T21:19:43.401Z,42.12
2022-12-31T21:21:47.917Z,42.17
2022-12-31T21:23:52.351Z,42.17
2022-12-31T21:25:56.798Z,42.18
2022-12-31T21:28:01.251Z,42.02
2022-12-31T21:30:22.248Z,41.93
2022-12-31T21:32:26.803Z,41.03
2022-12-31T21:34:31.221Z,40.59
2022-12-31T21:36:35.699Z,40.82
2022-12-31T21:38:40.095Z,40.13
2022-12-31T21:40:44.545Z,40.15
2022-12-31T21:42:49.012Z,39.58
2022-12-31T21:44:53.445Z,40.06
2022-12-31T21:47:47.367Z,40.28
2022-12-31T21:49:52.234Z,39.48
2022-12-31T21:51:56.667Z,39.43
2022-12-31T21:54:01.160Z,39.54
2022-12-31T21:56:05.575Z,39.6
2022-12-31T21:58:40.005Z,39.54
2022-12-31T22:00:45.611Z,39.59
2022-12-31T22:03:02.126Z,39.37
2022-12-31T22:05:25.845Z,38.31
2022-12-31T22:07:30.268Z,37.93
2022-12-31T22:09:34.664Z,38.04
2022-12-31T22:11:39.073Z,38.42
2022-12-31T22:13:43.532Z,38.75
2022-12-31T22:15:48.195Z,38.6
2022-12-31T22:17:52.704Z,38.87
2022-12-31T22:20:29.291Z,38.94
2022-12-31T22:22:33.914Z,38.83
2022-12-31T22:24:38.384Z,38.19
2022-12-31T22:26:48.587Z,38.78
2022-12-31T22:28:53.218Z,38.43
2022-12-31T22:30:57.791Z,38.58
2022-12-31T22:33:02.345Z,38.41
2022-12-31T22:35:06.788Z,38.3
2022-12-31T22:38:03.360Z,38.68
2022-12-31T22:40:10.961Z,38.5
2022-12-31T22:42:15.392Z,38.33
2022-12-31T22:44:19.783Z,38.5
2022-12-31T22:46:24.386Z,38.38
2022-12-31T22:48:28.847Z,37.97
2022-12-31T22:50:33.284Z,39.16
2022-12-31T22:52:37.789Z,39.03
2022-12-31T22:54:42.229Z,39.16
2022-12-31T22:56:46.668Z,39.34
2022-12-31T22:58:51.106Z,39.62
2022-12-31T23:00:55.544Z,39.36
2022-12-31T23:03:00.206Z,38.5
2022-12-31T23:05:18.085Z,38.37
2022-12-31T23:07:22.543Z,38.36
2022-12-31T23:09:26.947Z,38.34
2022-12-31T23:11:31.394Z,38.54
2022-12-31T23:13:35.816Z,38.2
2022-12-31T23:15:40.189Z,37.29
2022-12-31T23:17:44.741Z,37.4
2022-12-31T23:19:49.150Z,36.83
2022-12-31T23:21:53.484Z,37.03
2022-12-31T23:23:57.921Z,36.81
2022-12-31T23:26:02.399Z,37.18
2022-12-31T23:28:06.888Z,37.53
2022-12-31T23:30:11.375Z,37.81
2022-12-31T23:32:15.878Z,37.74
2022-12-31T23:34:20.297Z,37.62
2022-12-31T23:38:29.917Z,37.02
2022-12-31T23:40:34.525Z,37.04
2022-12-31T23:42:39.061Z,37.01
2022-12-31T23:44:43.582Z,37.75
2022-12-31T23:48:49.493Z,39.03
2022-12-31T23:50:56.395Z,39.43
2022-12-31T23:53:00.840Z,39.86
2022-12-31T23:55:05.331Z,40.03
2022-12-31T23:57:09.713Z,40.26
2022-12-31T23:59:14.204Z,40.9
